KSMF/SMF METAR and TAF weather

Enter ICAO airport designator
Station Type Date Time Source
KSMF METAR 2021/04/13 21:53 UTC NOAA

KSMF 132153Z 27006KT 10SM CLR 24/M01 A2974 RMK AO2 SLP071 T02391011


Station Type Date Time Source
KSMF Decoded METAR 2021/04/13 21:53 UTC NOAA

SACRAMENTO INTERNATIONAL AIRPORT, CA, United States (KSMF) 38-42N 121-36W 6M
Apr 13, 2021 - 05:53 PM EDT / 2021.04.13 2153 UTC
Wind: from the W (270 degrees) at 7 MPH (6 KT):0
Visibility: 10 mile(s):0
Sky conditions: clear
Temperature: 75.0 F (23.9 C)
Dew Point: 30.0 F (-1.1 C)
Relative Humidity: 19%
Pressure (altimeter): 29.74 in. Hg (1007 hPa)
ob: KSMF 132153Z 27006KT 10SM CLR 24/M01 A2974 RMK AO2 SLP071 T02391011
cycle: 22

Station Type Date Time Source
KSMF TAF 2021/04/13 18:27 UTC NOAA

TAF KSMF 131724Z 1318/1418 29010KT P6SM SKC
FM131900 22012KT P6SM SKC
FM132200 21014G20KT P6SM FEW150
FM140000 19012KT P6SM FEW150

Example: see airport list